Time;durP1;ratioP1;P1;durP2;ratioP2;P2;SDS_P1;SDS_P2;PMS_P1;PMS_P2;Temp;Humidity;BMP_temperature;BMP_pressure;BME280_temperature;BME280_humidity;BME280_pressure;Samples;Min_cycle;Max_cycle;Signal;HPM_P1;HPM_P2
2022/01/15 00:02:07;;;;;;;30.58;14.43;;;1.50;70.00;;;;;;2371420;53;20904;-67
2022/01/15 00:04:36;;;;;;;31.15;15.23;;;1.50;70.10;;;;;;2371265;53;20990;-67
2022/01/15 00:07:03;;;;;;;28.55;14.50;;;1.50;70.10;;;;;;2371754;54;20934;-67
2022/01/15 00:09:29;;;;;;;34.28;13.95;;;1.50;70.10;;;;;;2371103;54;20985;-67
2022/01/15 00:11:56;;;;;;;29.42;13.52;;;1.50;70.00;;;;;;2367321;53;20953;-67
2022/01/15 00:14:30;;;;;;;28.95;12.35;;;1.50;70.10;;;;;;2389535;53;20930;-67
2022/01/15 00:17:05;;;;;;;27.33;12.50;;;1.50;70.00;;;;;;2624845;52;21013;-67
2022/01/15 00:19:43;;;;;;;26.05;11.65;;;1.50;69.80;;;;;;2371173;53;22025;-67
2022/01/15 00:22:14;;;;;;;25.48;11.35;;;1.40;69.60;;;;;;2372465;53;21507;-67
2022/01/15 00:24:40;;;;;;;26.02;12.32;;;1.40;69.50;;;;;;2370680;54;20957;-67
2022/01/15 00:27:07;;;;;;;23.55;11.35;;;1.40;69.50;;;;;;2371047;54;21843;-67
2022/01/15 00:29:33;;;;;;;23.90;11.70;;;1.40;69.60;;;;;;2371936;53;21037;-67
2022/01/15 00:32:00;;;;;;;25.98;12.43;;;1.40;69.70;;;;;;2371970;54;21453;-67
2022/01/15 00:34:27;;;;;;;20.70;10.43;;;1.40;69.90;;;;;;2543859;52;20946;-67
2022/01/15 00:36:53;;;;;;;25.02;11.40;;;1.40;70.00;;;;;;2351684;53;20940;-67
2022/01/15 00:39:20;;;;;;;28.50;13.95;;;1.40;70.20;;;;;;2372681;53;20958;-67
2022/01/15 00:41:46;;;;;;;29.05;13.68;;;1.40;70.30;;;;;;2420133;52;21607;-67
2022/01/15 00:44:13;;;;;;;31.40;12.45;;;1.40;70.40;;;;;;2371934;54;20977;-67
2022/01/15 00:46:39;;;;;;;26.42;12.80;;;1.40;70.50;;;;;;2372328;54;21020;-67
2022/01/15 00:49:06;;;;;;;27.15;12.05;;;1.40;70.60;;;;;;2372498;54;20933;-67
2022/01/15 00:51:32;;;;;;;24.33;12.27;;;1.40;70.70;;;;;;2371852;53;21004;-67
2022/01/15 00:53:59;;;;;;;23.52;11.48;;;1.40;70.70;;;;;;2372854;54;21001;-67
2022/01/15 00:56:26;;;;;;;23.05;11.05;;;1.50;70.80;;;;;;2372347;53;20926;-67
2022/01/15 00:58:53;;;;;;;20.73;10.38;;;1.50;70.80;;;;;;2372333;53;20994;-67
2022/01/15 01:01:20;;;;;;;20.67;10.73;;;1.50;70.90;;;;;;2372412;54;20991;-67
2022/01/15 01:03:47;;;;;;;20.88;10.02;;;1.50;70.70;;;;;;2624975;52;21029;-67
2022/01/15 01:06:17;;;;;;;22.35;10.30;;;1.50;70.50;;;;;;2373087;54;20917;-67
2022/01/15 01:08:43;;;;;;;19.98;9.70;;;1.50;70.30;;;;;;2372204;54;20930;-67
2022/01/15 01:11:18;;;;;;;19.80;10.40;;;1.50;70.30;;;;;;2534430;52;20976;-67
2022/01/15 01:25:13;;;;;;;24.87;11.55;;;1.50;70.10;;;;;;2366739;53;20977;-67
2022/01/15 01:27:47;;;;;;;25.65;10.48;;;1.50;70.10;;;;;;2360039;52;20966;-67
2022/01/15 01:33:26;;;;;;;21.00;9.95;;;1.50;70.30;;;;;;2358915;53;21915;-67
2022/01/15 01:38:53;;;;;;;21.55;11.12;;;1.50;70.20;;;;;;2371785;54;21073;-67
2022/01/15 01:41:21;;;;;;;21.85;10.65;;;1.50;70.20;;;;;;2372483;53;20929;-67
2022/01/15 01:43:54;;;;;;;23.48;10.63;;;1.50;70.20;;;;;;2482814;52;20934;-67
2022/01/15 01:46:34;;;;;;;23.83;11.43;;;1.50;70.30;;;;;;2375276;53;20968;-67
2022/01/15 01:49:01;;;;;;;23.67;10.73;;;1.50;70.50;;;;;;2372160;54;20993;-67
2022/01/15 01:51:34;;;;;;;21.00;10.48;;;1.50;70.50;;;;;;2371869;54;20921;-67
2022/01/15 01:54:04;;;;;;;24.77;11.00;;;1.50;70.50;;;;;;2372468;54;21449;-67
2022/01/15 01:56:30;;;;;;;22.40;10.52;;;1.50;70.50;;;;;;2599236;52;20922;-67
2022/01/15 01:58:56;;;;;;;22.10;10.82;;;1.50;70.50;;;;;;2372417;54;21006;-67
2022/01/15 02:01:23;;;;;;;22.92;10.63;;;1.60;70.70;;;;;;2352819;54;20946;-67
2022/01/15 02:03:51;;;;;;;20.75;9.18;;;1.60;70.50;;;;;;2371118;54;21224;-67
2022/01/15 02:06:18;;;;;;;23.27;9.50;;;1.60;70.40;;;;;;2346210;53;20982;-67
2022/01/15 02:08:45;;;;;;;21.42;9.77;;;1.50;70.10;;;;;;2350915;53;20952;-67
2022/01/15 02:11:12;;;;;;;22.15;9.32;;;1.50;70.10;;;;;;2368660;54;20968;-67
2022/01/15 02:13:39;;;;;;;20.55;8.70;;;1.50;70.00;;;;;;2370448;54;20934;-67
2022/01/15 02:16:05;;;;;;;21.02;9.25;;;1.50;70.00;;;;;;2623104;52;20942;-67
2022/01/15 02:18:33;;;;;;;20.37;8.68;;;1.50;69.90;;;;;;2370657;53;20997;-67
2022/01/15 02:24:28;;;;;;;17.50;7.75;;;1.50;70.00;;;;;;2370192;54;20950;-67
2022/01/15 02:26:55;;;;;;;16.77;7.87;;;1.50;69.90;;;;;;2376195;52;21045;-67
2022/01/15 02:29:21;;;;;;;19.02;8.95;;;1.40;69.90;;;;;;2370472;54;20929;-67
2022/01/15 02:31:49;;;;;;;17.62;8.25;;;1.40;70.00;;;;;;2370511;54;20990;-67
2022/01/15 02:34:18;;;;;;;24.37;9.32;;;1.40;70.30;;;;;;2368854;53;20917;-67
2022/01/15 02:36:47;;;;;;;18.20;8.88;;;1.40;70.50;;;;;;2348968;53;21005;-67
2022/01/15 02:39:13;;;;;;;25.25;9.77;;;1.40;70.60;;;;;;2599197;52;20950;-68
2022/01/15 02:41:39;;;;;;;20.15;8.85;;;1.50;70.80;;;;;;2369388;54;20969;-67
2022/01/15 02:44:10;;;;;;;15.68;7.85;;;1.50;70.80;;;;;;2361983;53;20919;-67
2022/01/15 02:48:00;;;;;;;19.98;8.52;;;1.50;70.90;;;;;;2360454;53;21487;-67
2022/01/15 02:50:26;;;;;;;18.42;7.50;;;1.50;70.90;;;;;;2623210;52;21447;-67
2022/01/15 02:52:52;;;;;;;15.73;7.50;;;1.50;70.70;;;;;;2370467;54;20950;-67
2022/01/15 02:55:22;;;;;;;20.30;7.90;;;1.50;70.80;;;;;;2370595;54;20930;-67
2022/01/15 02:57:49;;;;;;;19.02;8.23;;;1.60;71.00;;;;;;2368622;52;21226;-67
2022/01/15 03:00:16;;;;;;;17.90;8.30;;;1.60;71.10;;;;;;2370821;54;21001;-68
2022/01/15 03:02:42;;;;;;;17.80;7.50;;;1.60;71.20;;;;;;2370417;53;21412;-67
2022/01/15 03:05:09;;;;;;;19.73;8.45;;;1.60;71.10;;;;;;2371338;54;21714;-67
2022/01/15 03:07:38;;;;;;;20.55;9.25;;;1.60;71.20;;;;;;2368098;54;21005;-67
2022/01/15 03:10:05;;;;;;;21.10;8.63;;;1.60;71.20;;;;;;2369283;54;20970;-67
2022/01/15 03:12:32;;;;;;;19.00;8.10;;;1.70;71.30;;;;;;2369668;54;20977;-67
2022/01/15 03:15:02;;;;;;;17.12;7.18;;;1.70;71.30;;;;;;2368001;53;21012;-67
2022/01/15 03:17:28;;;;;;;18.80;8.25;;;1.70;71.20;;;;;;2345930;53;20909;-67
2022/01/15 03:19:55;;;;;;;17.70;6.90;;;1.70;71.90;;;;;;2367862;52;21085;-67
2022/01/15 03:22:24;;;;;;;25.05;7.87;;;1.80;71.30;;;;;;2370995;53;20910;-68
2022/01/15 03:24:50;;;;;;;20.33;8.05;;;1.80;71.30;;;;;;2623097;52;21871;-67
2022/01/15 03:27:17;;;;;;;18.12;8.27;;;1.80;71.30;;;;;;2371349;53;20982;-67
2022/01/15 03:29:43;;;;;;;18.92;8.50;;;1.80;71.30;;;;;;2370060;53;20993;-67
2022/01/15 03:32:09;;;;;;;20.80;8.88;;;1.80;71.30;;;;;;2370536;54;20942;-67
2022/01/15 03:34:36;;;;;;;23.10;9.75;;;1.80;71.30;;;;;;2370360;54;20949;-67
2022/01/15 03:37:02;;;;;;;20.00;9.38;;;1.90;71.40;;;;;;2370547;54;21077;-67
2022/01/15 03:39:29;;;;;;;20.67;8.57;;;1.90;71.40;;;;;;2370617;53;20930;-67
2022/01/15 03:41:55;;;;;;;19.15;9.05;;;1.90;71.40;;;;;;2370345;53;20982;-67
2022/01/15 03:44:21;;;;;;;18.75;8.38;;;1.90;71.30;;;;;;2370817;53;20986;-67
2022/01/15 03:46:47;;;;;;;20.70;8.80;;;2.00;71.40;;;;;;2377602;52;20945;-67
2022/01/15 03:49:14;;;;;;;25.00;8.93;;;2.00;71.40;;;;;;2370099;53;21062;-67
2022/01/15 03:51:40;;;;;;;22.52;8.77;;;2.00;71.30;;;;;;2356772;54;20921;-68
2022/01/15 03:54:06;;;;;;;18.58;7.53;;;2.00;71.10;;;;;;2370697;54;21092;-67
2022/01/15 03:56:33;;;;;;;17.45;6.82;;;2.00;70.90;;;;;;2371287;54;21010;-67
2022/01/15 03:58:59;;;;;;;20.40;7.50;;;2.00;70.80;;;;;;2370833;53;21442;-67
2022/01/15 04:01:26;;;;;;;19.05;7.05;;;2.00;70.80;;;;;;2364965;53;21438;-67
2022/01/15 04:03:52;;;;;;;12.95;6.28;;;2.00;70.70;;;;;;2357528;53;20941;-67
2022/01/15 04:06:18;;;;;;;18.02;7.75;;;2.00;70.80;;;;;;2355455;53;20958;-67
2022/01/15 04:08:45;;;;;;;15.82;6.32;;;2.00;70.70;;;;;;2369791;53;21192;-67
2022/01/15 04:11:11;;;;;;;18.90;6.90;;;2.00;70.70;;;;;;2373788;54;21002;-67
2022/01/15 04:13:37;;;;;;;17.52;7.62;;;2.00;70.80;;;;;;2347261;53;20958;-67
2022/01/15 04:16:04;;;;;;;16.77;7.35;;;2.00;70.80;;;;;;2370940;54;21379;-67
2022/01/15 04:18:36;;;;;;;21.12;6.97;;;2.00;70.90;;;;;;2370481;54;20981;-67
2022/01/15 04:21:03;;;;;;;15.90;6.90;;;2.00;70.90;;;;;;2370819;53;21482;-67
2022/01/15 04:23:29;;;;;;;13.73;6.53;;;2.00;70.80;;;;;;2369995;54;21593;-67
2022/01/15 04:25:56;;;;;;;13.57;6.20;;;2.00;70.70;;;;;;2480982;52;21552;-67
2022/01/15 04:28:22;;;;;;;15.93;6.60;;;2.00;70.80;;;;;;2369831;54;20906;-67
2022/01/15 04:30:51;;;;;;;14.98;6.50;;;2.00;70.80;;;;;;2373039;54;21033;-67
2022/01/15 04:33:26;;;;;;;22.15;7.50;;;2.00;71.60;;;;;;2348453;53;20938;-68
2022/01/15 04:35:52;;;;;;;19.80;7.32;;;2.00;70.80;;;;;;2349060;53;21639;-67
2022/01/15 04:38:19;;;;;;;17.77;6.93;;;2.00;70.80;;;;;;2623148;52;20969;-67
2022/01/15 04:40:48;;;;;;;13.95;6.65;;;2.00;70.80;;;;;;2372146;53;20968;-68
2022/01/15 04:43:16;;;;;;;11.12;5.50;;;2.00;70.80;;;;;;2347734;53;20935;-67
2022/01/15 04:45:42;;;;;;;16.45;7.10;;;2.00;70.80;;;;;;2370483;54;20922;-67
2022/01/15 04:48:08;;;;;;;18.35;7.32;;;2.00;70.90;;;;;;2391177;52;21037;-67
2022/01/15 04:50:34;;;;;;;15.38;7.00;;;2.00;71.00;;;;;;2533947;52;20937;-67
2022/01/15 04:53:03;;;;;;;18.05;7.22;;;2.00;71.00;;;;;;2370157;54;21029;-67
2022/01/15 04:55:30;;;;;;;15.02;6.50;;;2.10;71.20;;;;;;2370185;53;20933;-67
2022/01/15 04:57:56;;;;;;;18.15;7.40;;;2.10;71.10;;;;;;2370830;54;20930;-68
2022/01/15 05:00:22;;;;;;;14.75;6.55;;;2.10;71.10;;;;;;2370376;54;21005;-67
2022/01/15 05:02:49;;;;;;;17.75;7.78;;;2.10;71.10;;;;;;2370938;54;21323;-68
2022/01/15 05:05:15;;;;;;;16.90;6.40;;;2.10;71.20;;;;;;2370192;53;20933;-67
2022/01/15 05:07:42;;;;;;;18.55;7.70;;;2.10;71.20;;;;;;2356055;53;20934;-67
2022/01/15 05:10:09;;;;;;;15.50;6.82;;;2.10;71.10;;;;;;2363815;53;21035;-67
2022/01/15 05:12:46;;;;;;;16.77;7.10;;;2.10;71.10;;;;;;2358091;53;20928;-67
2022/01/15 05:15:14;;;;;;;16.52;7.50;;;2.20;71.10;;;;;;2368225;53;20949;-67
2022/01/15 05:17:40;;;;;;;19.50;8.35;;;2.20;71.00;;;;;;2424906;52;20978;-67
2022/01/15 05:20:07;;;;;;;18.92;8.60;;;2.20;71.00;;;;;;2370250;54;22499;-67
2022/01/15 05:22:34;;;;;;;20.37;9.52;;;2.20;70.80;;;;;;2347532;53;1370417;-67
2022/01/15 05:25:04;;;;;;;20.60;9.88;;;2.20;70.70;;;;;;2356672;53;21017;-67
2022/01/15 05:27:30;;;;;;;17.50;7.82;;;2.20;70.70;;;;;;2353368;53;21510;-67
2022/01/15 05:29:56;;;;;;;22.37;9.60;;;2.20;70.70;;;;;;2468127;52;21407;-67
2022/01/15 05:32:23;;;;;;;25.75;9.68;;;2.20;70.70;;;;;;2622113;52;21481;-67
2022/01/15 05:34:51;;;;;;;22.98;9.73;;;2.20;70.70;;;;;;2369567;54;20981;-67
2022/01/15 05:37:18;;;;;;;18.50;7.03;;;2.20;70.70;;;;;;2352122;53;20973;-67
2022/01/15 05:39:45;;;;;;;18.50;7.85;;;2.20;70.70;;;;;;2370067;53;21065;-67
2022/01/15 05:42:12;;;;;;;18.80;7.55;;;2.20;70.80;;;;;;2370788;53;21009;-67
2022/01/15 05:44:39;;;;;;;15.45;7.28;;;2.20;70.80;;;;;;2370219;54;21010;-67
2022/01/15 05:47:06;;;;;;;19.73;6.95;;;2.20;70.80;;;;;;2370331;53;21077;-67
2022/01/15 05:49:34;;;;;;;18.52;7.72;;;2.20;70.80;;;;;;2370432;54;21514;-67
2022/01/15 05:52:15;;;;;;;15.38;7.40;;;2.20;70.90;;;;;;2370484;54;20950;-67
2022/01/15 05:54:41;;;;;;;19.67;7.72;;;2.20;70.80;;;;;;2370387;54;20943;-68
2022/01/15 05:57:08;;;;;;;18.02;7.53;;;2.20;70.80;;;;;;2370496;54;21002;-68
2022/01/15 05:59:34;;;;;;;16.17;7.30;;;2.20;70.90;;;;;;2370269;54;21002;-67
2022/01/15 06:02:01;;;;;;;16.40;6.80;;;2.20;70.80;;;;;;2370059;53;20958;-68
2022/01/15 06:04:28;;;;;;;18.02;6.90;;;2.20;70.80;;;;;;2521273;52;20945;-67
2022/01/15 06:06:54;;;;;;;13.55;5.75;;;2.20;70.80;;;;;;2358275;53;20953;-68
2022/01/15 06:09:20;;;;;;;17.85;6.93;;;2.20;70.80;;;;;;2370898;54;21006;-68
2022/01/15 06:11:47;;;;;;;16.90;7.15;;;2.20;70.80;;;;;;2370594;54;21483;-67
2022/01/15 06:14:14;;;;;;;13.52;6.47;;;2.20;70.70;;;;;;2365268;53;21041;-67
2022/01/15 06:16:40;;;;;;;17.02;7.22;;;2.20;70.70;;;;;;2355885;53;20937;-68
2022/01/15 06:19:06;;;;;;;19.40;7.78;;;2.20;70.70;;;;;;2370609;54;20950;-67
2022/01/15 06:21:34;;;;;;;16.27;7.40;;;2.20;70.70;;;;;;2371071;54;21448;-67
2022/01/15 06:24:00;;;;;;;19.02;7.40;;;2.20;70.60;;;;;;2366844;52;20980;-67
2022/01/15 06:26:26;;;;;;;18.37;6.82;;;2.20;70.50;;;;;;2416945;52;20925;-67
2022/01/15 06:28:55;;;;;;;18.40;7.65;;;2.20;70.40;;;;;;2371044;53;20930;-67
2022/01/15 06:31:22;;;;;;;18.52;7.62;;;2.20;70.40;;;;;;2372148;53;20997;-67
2022/01/15 06:33:48;;;;;;;13.48;6.55;;;2.20;70.40;;;;;;2370210;54;21001;-67
2022/01/15 06:36:16;;;;;;;15.27;6.37;;;2.20;70.30;;;;;;2371011;54;20997;-68
2022/01/15 06:38:42;;;;;;;15.90;6.37;;;2.10;70.10;;;;;;2373035;53;20961;-67
2022/01/15 06:41:08;;;;;;;15.50;6.85;;;2.10;70.00;;;;;;2355052;53;21546;-67
2022/01/15 06:43:36;;;;;;;15.73;6.15;;;2.10;70.10;;;;;;2513343;52;20981;-67
2022/01/15 06:46:05;;;;;;;14.93;6.22;;;2.10;70.10;;;;;;2419842;52;20941;-67
2022/01/15 06:48:31;;;;;;;15.60;7.22;;;2.10;70.10;;;;;;2341734;54;20923;-67
2022/01/15 06:50:58;;;;;;;17.83;6.68;;;2.10;70.20;;;;;;2352500;53;20933;-67
2022/01/15 06:53:24;;;;;;;18.30;7.22;;;2.00;70.30;;;;;;2369857;54;20945;-67
2022/01/15 06:55:52;;;;;;;17.23;6.93;;;2.00;70.40;;;;;;2355630;54;20911;-67
2022/01/15 06:58:20;;;;;;;18.02;7.05;;;2.00;70.60;;;;;;2342231;54;20939;-67
2022/01/15 07:00:46;;;;;;;15.52;6.32;;;2.00;70.70;;;;;;2342846;53;20914;-67
2022/01/15 07:03:12;;;;;;;18.92;7.15;;;2.00;70.70;;;;;;2343712;53;20912;-68
2022/01/15 07:05:39;;;;;;;15.45;5.68;;;2.10;70.80;;;;;;2344829;55;20932;-68
2022/01/15 07:08:05;;;;;;;16.55;6.87;;;2.10;70.80;;;;;;2351676;53;20924;-67
2022/01/15 07:10:31;;;;;;;12.45;5.72;;;2.10;70.80;;;;;;2326613;54;21522;-67
2022/01/15 07:12:58;;;;;;;14.38;6.28;;;2.10;70.80;;;;;;2310608;54;20940;-68
2022/01/15 07:15:24;;;;;;;16.30;7.05;;;2.10;70.80;;;;;;2310737;54;21054;-67
2022/01/15 07:17:50;;;;;;;15.57;6.18;;;2.10;70.90;;;;;;2318892;54;20960;-67
2022/01/15 07:20:17;;;;;;;13.50;6.03;;;2.10;70.90;;;;;;2337700;53;21545;-67
2022/01/15 07:22:43;;;;;;;20.90;8.45;;;2.10;70.90;;;;;;2327417;53;21464;-68
2022/01/15 07:25:10;;;;;;;19.40;8.25;;;2.10;70.90;;;;;;2338111;53;21711;-68
2022/01/15 07:27:36;;;;;;;14.70;6.82;;;2.10;70.90;;;;;;2337614;53;21374;-68
2022/01/15 07:30:06;;;;;;;14.57;6.45;;;2.20;71.00;;;;;;2338037;53;20929;-67
2022/01/15 07:32:35;;;;;;;13.88;5.97;;;2.20;71.00;;;;;;2478705;54;20941;-67
2022/01/15 07:35:02;;;;;;;17.80;6.60;;;2.20;71.00;;;;;;2371890;53;20930;-67
2022/01/15 07:37:29;;;;;;;16.35;5.90;;;2.20;71.10;;;;;;2369890;53;20925;-67
2022/01/15 07:39:56;;;;;;;15.68;6.45;;;2.20;71.10;;;;;;2508676;52;20905;-68
2022/01/15 07:42:22;;;;;;;15.77;6.43;;;2.20;71.20;;;;;;2369326;53;21517;-68
2022/01/15 07:44:48;;;;;;;15.93;6.57;;;2.20;71.20;;;;;;2369475;54;20925;-68
2022/01/15 07:47:14;;;;;;;18.35;6.45;;;2.20;71.10;;;;;;2369836;54;20926;-68
2022/01/15 07:49:42;;;;;;;17.77;6.75;;;2.20;71.10;;;;;;2369433;53;20906;-67
2022/01/15 07:52:12;;;;;;;15.45;5.95;;;2.30;71.20;;;;;;2371104;53;21842;-68
2022/01/15 07:54:38;;;;;;;15.75;6.57;;;2.20;71.10;;;;;;2370091;54;20977;-67
2022/01/15 07:57:04;;;;;;;20.17;8.02;;;2.30;71.20;;;;;;2364466;53;20946;-68
2022/01/15 07:59:30;;;;;;;16.62;7.18;;;2.30;71.10;;;;;;2360608;54;20943;-67
2022/01/15 08:01:57;;;;;;;20.20;8.00;;;2.30;71.10;;;;;;2490022;52;20964;-67
2022/01/15 08:04:23;;;;;;;20.23;7.65;;;2.40;71.20;;;;;;2399477;53;20967;-68
2022/01/15 08:06:49;;;;;;;19.60;7.22;;;2.40;71.30;;;;;;2319483;53;21026;-68
2022/01/15 08:09:16;;;;;;;16.75;6.70;;;2.40;71.30;;;;;;2540670;53;21553;-68
2022/01/15 08:11:42;;;;;;;20.37;7.78;;;2.40;71.20;;;;;;2323597;53;20999;-68
2022/01/15 08:14:08;;;;;;;17.58;7.87;;;2.40;71.20;;;;;;2341603;53;20929;-69
2022/01/15 08:16:34;;;;;;;15.30;5.97;;;2.40;71.20;;;;;;2342372;54;21080;-68
2022/01/15 08:19:01;;;;;;;19.90;7.15;;;2.40;71.20;;;;;;2342569;53;20997;-67
2022/01/15 08:21:28;;;;;;;14.93;6.35;;;2.40;71.30;;;;;;2343104;53;20941;-67
2022/01/15 08:23:54;;;;;;;18.85;7.22;;;2.40;71.30;;;;;;2332292;54;20962;-67
2022/01/15 08:26:20;;;;;;;16.75;6.32;;;2.40;71.30;;;;;;2342519;54;21057;-67
2022/01/15 08:28:46;;;;;;;23.20;7.30;;;2.50;71.30;;;;;;2341855;54;20954;-68
2022/01/15 08:31:13;;;;;;;18.10;7.55;;;2.50;71.40;;;;;;2342018;54;20998;-67
2022/01/15 08:33:39;;;;;;;18.85;6.97;;;2.50;71.40;;;;;;2342333;54;20929;-67
2022/01/15 08:36:06;;;;;;;17.35;6.70;;;2.50;71.40;;;;;;2344901;54;21714;-68
2022/01/15 08:38:32;;;;;;;13.40;5.87;;;2.50;71.30;;;;;;2338230;53;20978;-68
2022/01/15 08:41:13;;;;;;;16.75;6.65;;;2.60;71.50;;;;;;2342513;54;20931;-67
2022/01/15 08:43:41;;;;;;;21.48;7.65;;;2.50;71.40;;;;;;2342740;54;20905;-68
2022/01/15 08:46:08;;;;;;;16.10;6.87;;;2.60;71.50;;;;;;2345474;54;21800;-67
2022/01/15 08:48:34;;;;;;;14.85;6.47;;;2.60;71.40;;;;;;2341529;53;21103;-67
2022/01/15 08:51:00;;;;;;;20.20;7.12;;;2.60;71.30;;;;;;2325566;53;20937;-68
2022/01/15 08:53:26;;;;;;;21.70;9.02;;;2.60;71.30;;;;;;2344103;54;21009;-68
2022/01/15 08:55:53;;;;;;;20.62;7.80;;;2.60;71.30;;;;;;2338405;53;21003;-68
2022/01/15 08:58:25;;;;;;;19.25;7.50;;;2.60;71.30;;;;;;2367724;54;20955;-67
2022/01/15 09:00:54;;;;;;;15.60;6.82;;;2.60;71.30;;;;;;2367187;54;20975;-68
2022/01/15 09:03:22;;;;;;;18.42;7.22;;;2.60;71.20;;;;;;2366901;54;20932;-68
2022/01/15 09:05:50;;;;;;;19.70;7.15;;;2.70;71.20;;;;;;2367242;54;21413;-68
2022/01/15 09:08:17;;;;;;;16.52;7.32;;;2.70;71.30;;;;;;2367322;53;20987;-68
2022/01/15 09:10:44;;;;;;;19.12;7.70;;;2.70;71.20;;;;;;2406265;52;20991;-67
2022/01/15 09:13:10;;;;;;;17.83;7.28;;;2.70;71.20;;;;;;2410836;52;21070;-68
2022/01/15 09:15:37;;;;;;;17.27;7.07;;;2.70;71.10;;;;;;2348037;53;21441;-68
2022/01/15 09:18:03;;;;;;;17.62;6.95;;;2.70;71.20;;;;;;2436612;52;20968;-68
2022/01/15 09:20:29;;;;;;;21.30;7.70;;;2.70;71.10;;;;;;2367266;54;21531;-67
2022/01/15 09:22:56;;;;;;;24.52;8.27;;;2.70;71.00;;;;;;2367243;54;20984;-68
2022/01/15 09:25:22;;;;;;;19.27;7.40;;;2.70;71.00;;;;;;2366154;54;20947;-68
2022/01/15 09:30:34;;;;;;;18.60;7.50;;;2.70;71.30;;;;;;2365331;54;20936;-67
2022/01/15 09:33:02;;;;;;;22.00;7.53;;;2.70;71.30;;;;;;2371834;52;20968;-68
2022/01/15 09:35:29;;;;;;;19.30;7.18;;;2.80;71.50;;;;;;2365402;54;20972;-67
2022/01/15 09:37:55;;;;;;;17.95;7.43;;;2.80;71.50;;;;;;2365737;54;20979;-67
2022/01/15 09:40:22;;;;;;;16.42;6.50;;;2.80;71.50;;;;;;2365328;54;21725;-67
2022/01/15 09:42:49;;;;;;;18.60;7.22;;;2.80;71.50;;;;;;2365250;54;20912;-67
2022/01/15 09:45:16;;;;;;;23.38;8.15;;;2.80;71.60;;;;;;2365514;54;20992;-67
2022/01/15 09:47:42;;;;;;;18.27;7.43;;;2.90;71.80;;;;;;2352677;53;20940;-67
2022/01/15 09:50:13;;;;;;;24.58;8.15;;;2.90;71.70;;;;;;2358420;53;21864;-68
2022/01/15 09:52:42;;;;;;;18.35;7.12;;;2.90;71.60;;;;;;2372319;52;21496;-67
2022/01/15 09:55:10;;;;;;;18.48;7.85;;;2.90;71.40;;;;;;2365021;54;21056;-68
2022/01/15 09:57:37;;;;;;;16.48;7.15;;;2.90;71.40;;;;;;2451310;52;20968;-68
2022/01/15 10:00:04;;;;;;;16.95;6.82;;;3.00;71.50;;;;;;2365582;54;20983;-67
2022/01/15 10:02:31;;;;;;;18.27;7.12;;;3.00;71.60;;;;;;2365298;54;20928;-66
2022/01/15 10:04:57;;;;;;;17.65;7.35;;;3.00;71.50;;;;;;2364530;54;21118;-66
2022/01/15 10:07:27;;;;;;;16.48;7.25;;;3.00;71.40;;;;;;2365285;54;20959;-67
2022/01/15 10:09:54;;;;;;;17.05;7.10;;;3.00;71.40;;;;;;2365016;54;21006;-67
2022/01/15 10:12:30;;;;;;;17.67;7.25;;;3.00;71.40;;;;;;2365061;53;20932;-68
2022/01/15 10:15:04;;;;;;;16.80;6.75;;;3.00;71.40;;;;;;2396161;52;21071;-67
2022/01/15 10:17:33;;;;;;;17.23;7.35;;;3.10;71.30;;;;;;2365935;54;20932;-68
2022/01/15 10:20:13;;;;;;;19.55;8.18;;;3.10;71.20;;;;;;2379968;52;20940;-68
2022/01/15 10:22:43;;;;;;;15.65;6.57;;;3.10;71.00;;;;;;2365153;54;20956;-66
2022/01/15 10:25:14;;;;;;;17.33;7.57;;;3.10;70.80;;;;;;2365560;54;20923;-67
2022/01/15 10:27:41;;;;;;;15.65;6.55;;;3.10;70.80;;;;;;2364951;54;20972;-67
2022/01/15 10:30:12;;;;;;;18.52;7.45;;;3.10;70.80;;;;;;2365341;54;20987;-67
2022/01/15 10:32:53;;;;;;;16.60;6.93;;;3.00;70.80;;;;;;2439655;52;20959;-67
2022/01/15 10:35:19;;;;;;;18.70;7.47;;;3.10;70.90;;;;;;2378170;52;20967;-68
2022/01/15 10:38:02;;;;;;;19.73;7.20;;;3.10;71.00;;;;;;2365286;54;21417;-67
2022/01/15 10:40:44;;;;;;;21.83;8.38;;;3.10;71.00;;;;;;2394074;52;21562;-67
2022/01/15 10:43:11;;;;;;;21.62;8.90;;;3.10;71.10;;;;;;2365053;53;21832;-68
2022/01/15 10:45:53;;;;;;;21.15;9.02;;;3.10;71.20;;;;;;2364453;54;20952;-67
2022/01/15 10:48:21;;;;;;;20.98;8.18;;;3.10;71.30;;;;;;2341881;53;21071;-67
2022/01/15 10:50:58;;;;;;;22.15;8.45;;;3.10;71.30;;;;;;2342139;54;20916;-68
2022/01/15 10:53:46;;;;;;;17.02;7.00;;;3.20;71.50;;;;;;2342422;54;20927;-67
2022/01/15 10:56:17;;;;;;;16.55;6.50;;;3.20;71.40;;;;;;2429638;52;20940;-67
2022/01/15 10:58:46;;;;;;;18.05;7.53;;;3.20;71.30;;;;;;2342554;54;21016;-67
2022/01/15 11:01:13;;;;;;;16.65;6.90;;;3.20;71.20;;;;;;2343076;53;21497;-67
2022/01/15 11:03:44;;;;;;;19.70;7.68;;;3.30;71.30;;;;;;2340807;53;21075;-67
2022/01/15 11:06:11;;;;;;;18.77;7.53;;;3.30;71.40;;;;;;2352752;52;21626;-67
2022/01/15 11:08:42;;;;;;;20.37;8.55;;;3.30;71.40;;;;;;2342461;53;21002;-68
2022/01/15 11:11:13;;;;;;;19.50;8.95;;;3.30;71.40;;;;;;2357068;53;20948;-68
2022/01/15 11:13:45;;;;;;;21.52;8.38;;;3.30;71.30;;;;;;2459103;52;21446;-66
2022/01/15 11:16:16;;;;;;;;;;;3.30;71.20;;;;;;2346054;54;20944;-66
2022/01/15 11:18:44;;;;;;;17.10;7.55;;;3.40;70.80;;;;;;2342256;54;20138;-66
2022/01/15 11:21:15;;;;;;;26.30;9.20;;;3.40;71.20;;;;;;2342123;54;21004;-67
2022/01/15 11:23:42;;;;;;;22.83;8.82;;;3.40;71.10;;;;;;2417545;52;20956;-68
2022/01/15 11:26:13;;;;;;;18.80;8.15;;;3.30;71.00;;;;;;2360982;53;21030;-68
2022/01/15 11:28:42;;;;;;;16.45;7.50;;;3.40;71.10;;;;;;2342481;54;20950;-67
2022/01/15 11:33:05;;;;;;;17.87;7.70;;;3.40;71.00;;;;;;2342442;54;20943;-68
2022/01/15 11:35:41;;;;;;;18.23;7.05;;;3.40;71.00;;;;;;2352147;53;20957;-67
2022/01/15 11:38:07;;;;;;;18.92;8.38;;;3.40;70.90;;;;;;2344905;53;20932;-67
2022/01/15 11:40:46;;;;;;;19.05;8.10;;;3.40;70.90;;;;;;2365116;53;21011;-67
2022/01/15 11:43:36;;;;;;;18.58;7.68;;;3.40;70.90;;;;;;2377909;52;20944;-67
2022/01/15 11:46:04;;;;;;;17.50;7.57;;;3.40;70.70;;;;;;2361998;53;20983;-67
2022/01/15 11:48:35;;;;;;;18.40;8.10;;;3.40;70.80;;;;;;2513947;52;20956;-67
2022/01/15 11:52:53;;;;;;;22.27;8.85;;;3.40;70.90;;;;;;2343736;53;21865;-66
2022/01/15 11:55:20;;;;;;;21.45;9.32;;;3.50;70.40;;;;;;2367348;52;20951;-67
2022/01/15 11:57:48;;;;;;;19.12;7.82;;;3.50;70.70;;;;;;2365351;54;22270;-67
2022/01/15 12:00:22;;;;;;;17.50;7.45;;;3.50;70.60;;;;;;2365935;53;21322;-67
2022/01/15 12:03:11;;;;;;;18.25;7.25;;;3.40;70.50;;;;;;2365268;53;20967;-67
2022/01/15 12:05:40;;;;;;;16.70;6.87;;;3.40;70.50;;;;;;2365363;53;21871;-66
2022/01/15 12:08:30;;;;;;;21.50;8.30;;;3.40;70.50;;;;;;2365709;54;20991;-66
2022/01/15 12:10:57;;;;;;;19.48;7.45;;;3.40;70.30;;;;;;2365793;53;21436;-66
2022/01/15 12:13:29;;;;;;;17.90;7.75;;;3.40;70.30;;;;;;2464631;52;21378;-67
2022/01/15 12:16:15;;;;;;;18.77;7.47;;;3.40;70.30;;;;;;2367432;53;20964;-68
2022/01/15 12:18:46;;;;;;;19.00;7.55;;;3.40;70.20;;;;;;2364815;54;20948;-66
2022/01/15 12:21:14;;;;;;;17.95;7.60;;;3.40;70.10;;;;;;2417705;52;20953;-66
2022/01/15 12:23:41;;;;;;;19.80;8.77;;;3.30;70.10;;;;;;2344734;53;21159;-66
2022/01/15 12:26:10;;;;;;;17.95;7.22;;;3.30;70.10;;;;;;2342310;52;21968;-67
2022/01/15 12:28:36;;;;;;;19.33;7.60;;;3.30;70.20;;;;;;2364646;54;20951;-67
2022/01/15 12:31:03;;;;;;;23.35;9.10;;;3.30;70.30;;;;;;2356823;53;20970;-67
2022/01/15 12:33:29;;;;;;;20.08;8.75;;;3.30;70.30;;;;;;2353363;53;20952;-67
2022/01/15 12:35:56;;;;;;;19.92;8.55;;;3.30;70.30;;;;;;2354623;53;21016;-67
2022/01/15 12:38:26;;;;;;;17.55;7.80;;;3.30;70.30;;;;;;2345153;53;20968;-66
2022/01/15 12:41:06;;;;;;;21.10;8.45;;;3.30;70.20;;;;;;2365583;53;20951;-67
2022/01/15 12:43:34;;;;;;;18.65;7.95;;;3.30;70.30;;;;;;2423933;52;20999;-66
2022/01/15 12:46:06;;;;;;;19.58;7.87;;;3.30;70.40;;;;;;2365438;54;20931;-67
2022/01/15 12:48:32;;;;;;;;;;;3.30;70.40;;;;;;2368666;53;20979;-68
2022/01/15 12:51:06;;;;;;;21.85;8.15;;;3.30;69.90;;;;;;2365534;54;20058;-67
2022/01/15 12:53:36;;;;;;;22.35;8.95;;;3.30;70.20;;;;;;2429227;52;21455;-67
2022/01/15 12:56:09;;;;;;;23.62;9.85;;;3.30;70.20;;;;;;2365527;54;20932;-67
2022/01/15 12:58:36;;;;;;;25.77;9.50;;;3.20;70.00;;;;;;2365533;53;21055;-67
2022/01/15 13:01:03;;;;;;;23.17;8.88;;;3.20;70.10;;;;;;2365367;53;20932;-67
2022/01/15 13:03:30;;;;;;;19.50;8.55;;;3.20;70.40;;;;;;2366180;53;20956;-67
2022/01/15 13:05:58;;;;;;;24.85;9.85;;;3.10;70.60;;;;;;2442852;52;21030;-66
2022/01/15 13:08:29;;;;;;;22.20;9.82;;;3.20;70.90;;;;;;2365107;54;20999;-67
2022/01/15 13:11:13;;;;;;;25.08;9.95;;;3.20;70.90;;;;;;2365135;53;20964;-66
2022/01/15 13:13:44;;;;;;;24.37;10.32;;;3.20;70.90;;;;;;2365084;54;21079;-67
2022/01/15 13:16:33;;;;;;;28.92;10.50;;;3.20;70.90;;;;;;2365462;54;21027;-67
2022/01/15 13:19:03;;;;;;;26.58;10.23;;;3.30;70.90;;;;;;2365526;54;21436;-67
2022/01/15 13:21:37;;;;;;;25.73;10.70;;;3.30;71.10;;;;;;2365287;54;21836;-67